ニューヨーク/JFK の空港の天気 - METARとTAF

ジョン・F・ケネディ国際空港 ( KJFK / JFK ) - アメリカ合衆国 ニューヨーク州ニューヨーク
飛行場実況気象(Metar)
観測時間02/20 09:51 EST (02/20 14:51 UTC)
風向・風速北西 5m/s
視程10km以上
天気現象
少しの雲 雲底高度 1280m
気温10℃
湿度52%
気圧1022.6hPa
METARKJFK 201451Z 31010KT 10SM FEW042 10/01 A3020 RMK AO2 SLP226 T01000006 53020
過去の天気等 Google飛行場航空写真 Wunderground天気予報

過去48時間のMETAR

飛行場予報(TAF)
発表時間: 2/20 08:30 EST (2/20 13:30 UTC)
予報対象時間: 20日9時 EST ~ 21日13時 EST
風向・風速北北西 7m/s 瞬間風速 10m/s
視程10km以上
少しの雲 雲底高度 1,220m
20日21時 EST から
風向・風速北北東 4m/s
視程10km以上
なし
21日0時 EST から
風向・風速北東 3m/s
視程10km以上
なし
21日10時 EST から
風向・風速南東 4m/s
視程10km以上
全天の4割程度の雲 雲底高度 6,100m
KJFK 201330Z 2014/2118 34013G20KT P6SM FEW040
FM210200 02008KT P6SM SKC
FM210500 04005KT P6SM SKC
FM211500 13007KT P6SM SCT200